sensor_id;sensor_type;location;lat;lon;timestamp;pressure;altitude;pressure_sealevel;temperature;humidity
34961;BME280;30789;52.030;7.110;2023-10-09T00:01:51;101220.91;;;13.85;91.90
34961;BME280;30789;52.030;7.110;2023-10-09T00:04:18;101220.09;;;13.85;92.03
34961;BME280;30789;52.030;7.110;2023-10-09T00:06:50;101210.63;;;13.96;92.38
34961;BME280;30789;52.030;7.110;2023-10-09T00:09:18;101212.59;;;13.96;92.70
34961;BME280;30789;52.030;7.110;2023-10-09T00:11:57;101209.03;;;13.88;93.39
34961;BME280;30789;52.030;7.110;2023-10-09T00:14:26;101203.09;;;13.97;93.43
34961;BME280;30789;52.030;7.110;2023-10-09T00:16:56;101198.34;;;13.94;93.47
34961;BME280;30789;52.030;7.110;2023-10-09T00:19:31;101193.22;;;14.10;93.85
34961;BME280;30789;52.030;7.110;2023-10-09T00:22:02;101198.75;;;14.03;94.38
34961;BME280;30789;52.030;7.110;2023-10-09T00:24:37;101193.59;;;14.05;94.07
34961;BME280;30789;52.030;7.110;2023-10-09T00:27:10;101186.47;;;14.11;93.85
34961;BME280;30789;52.030;7.110;2023-10-09T00:29:38;101189.63;;;14.20;94.05
34961;BME280;30789;52.030;7.110;2023-10-09T00:32:12;101184.09;;;14.23;94.46
34961;BME280;30789;52.030;7.110;2023-10-09T00:34:48;101198.38;;;14.29;93.89
34961;BME280;30789;52.030;7.110;2023-10-09T00:37:18;101198.78;;;14.27;94.48
34961;BME280;30789;52.030;7.110;2023-10-09T00:39:50;101203.13;;;14.39;93.91
34961;BME280;30789;52.030;7.110;2023-10-09T00:42:21;101205.91;;;14.32;94.18
34961;BME280;30789;52.030;7.110;2023-10-09T00:44:53;101206.28;;;14.44;93.79
34961;BME280;30789;52.030;7.110;2023-10-09T00:47:20;101216.59;;;14.47;93.05
34961;BME280;30789;52.030;7.110;2023-10-09T00:49:50;101201.56;;;14.34;93.88
34961;BME280;30789;52.030;7.110;2023-10-09T00:52:22;101209.09;;;14.37;93.78
34961;BME280;30789;52.030;7.110;2023-10-09T00:54:58;101207.09;;;14.41;93.78
34961;BME280;30789;52.030;7.110;2023-10-09T00:57:33;101209.88;;;14.45;93.27
34961;BME280;30789;52.030;7.110;2023-10-09T01:00:03;101201.53;;;14.41;93.43
34961;BME280;30789;52.030;7.110;2023-10-09T01:02:48;101201.53;;;14.45;93.08
34961;BME280;30789;52.030;7.110;2023-10-09T01:05:35;101201.91;;;14.50;93.44
34961;BME280;30789;52.030;7.110;2023-10-09T01:08:04;101200.34;;;14.53;92.84
34961;BME280;30789;52.030;7.110;2023-10-09T01:10:46;101194.41;;;14.47;92.80
34961;BME280;30789;52.030;7.110;2023-10-09T01:13:21;101187.28;;;14.43;92.79
34961;BME280;30789;52.030;7.110;2023-10-09T01:15:53;101183.28;;;14.58;92.60
34961;BME280;30789;52.030;7.110;2023-10-09T01:18:24;101191.63;;;14.54;92.33
34961;BME280;30789;52.030;7.110;2023-10-09T01:20:57;101176.13;;;14.67;92.05
34961;BME280;30789;52.030;7.110;2023-10-09T01:23:28;101176.16;;;14.60;91.81
34961;BME280;30789;52.030;7.110;2023-10-09T01:25:56;101174.56;;;14.70;91.86
34961;BME280;30789;52.030;7.110;2023-10-09T01:28:24;101180.91;;;14.67;91.39
34961;BME280;30789;52.030;7.110;2023-10-09T01:30:51;101170.22;;;14.58;91.59
34961;BME280;30789;52.030;7.110;2023-10-09T01:33:23;101176.16;;;14.57;91.83
34961;BME280;30789;52.030;7.110;2023-10-09T01:35:52;101173.38;;;14.57;91.87
34961;BME280;30789;52.030;7.110;2023-10-09T01:38:25;101163.88;;;14.61;91.52
34961;BME280;30789;52.030;7.110;2023-10-09T01:41:06;101162.28;;;14.57;92.10
34961;BME280;30789;52.030;7.110;2023-10-09T01:43:34;101153.94;;;14.67;91.43
34961;BME280;30789;52.030;7.110;2023-10-09T01:46:05;101161.50;;;14.67;91.39
34961;BME280;30789;52.030;7.110;2023-10-09T01:48:36;101165.03;;;14.71;91.41
34961;BME280;30789;52.030;7.110;2023-10-09T01:51:08;101161.09;;;14.68;91.37
34961;BME280;30789;52.030;7.110;2023-10-09T01:53:48;101150.41;;;14.67;91.07
34961;BME280;30789;52.030;7.110;2023-10-09T01:56:22;101153.56;;;14.65;91.42
34961;BME280;30789;52.030;7.110;2023-10-09T01:58:51;101145.66;;;14.60;91.82
34961;BME280;30789;52.030;7.110;2023-10-09T02:01:25;101148.03;;;14.62;91.18
34961;BME280;30789;52.030;7.110;2023-10-09T02:03:54;101145.22;;;14.69;90.75
34961;BME280;30789;52.030;7.110;2023-10-09T02:06:28;101146.03;;;14.66;90.93
34961;BME280;30789;52.030;7.110;2023-10-09T02:08:59;101159.09;;;14.69;90.49
34961;BME280;30789;52.030;7.110;2023-10-09T02:11:29;101161.88;;;14.72;90.64
34961;BME280;30789;52.030;7.110;2023-10-09T02:14:13;101159.88;;;14.69;90.67
34961;BME280;30789;52.030;7.110;2023-10-09T02:16:52;101155.50;;;14.75;90.30
34961;BME280;30789;52.030;7.110;2023-10-09T02:19:45;101151.53;;;14.87;89.37
34961;BME280;30789;52.030;7.110;2023-10-09T02:22:15;101147.94;;;14.83;89.77
34961;BME280;30789;52.030;7.110;2023-10-09T02:24:48;101149.91;;;14.89;89.48
34961;BME280;30789;52.030;7.110;2023-10-09T02:27:23;101138.47;;;14.77;89.55
34961;BME280;30789;52.030;7.110;2023-10-09T02:30:12;101133.72;;;14.74;89.90
34961;BME280;30789;52.030;7.110;2023-10-09T02:32:47;101132.91;;;14.73;90.20
34961;BME280;30789;52.030;7.110;2023-10-09T02:35:19;101126.19;;;14.74;89.82
34961;BME280;30789;52.030;7.110;2023-10-09T02:38:05;101119.03;;;14.77;89.80
34961;BME280;30789;52.030;7.110;2023-10-09T02:40:49;101120.19;;;14.86;89.66
34961;BME280;30789;52.030;7.110;2023-10-09T02:43:48;101105.97;;;14.74;89.92
34961;BME280;30789;52.030;7.110;2023-10-09T02:46:21;101094.03;;;14.84;89.99
34961;BME280;30789;52.030;7.110;2023-10-09T02:48:58;101093.25;;;14.87;90.15
34961;BME280;30789;52.030;7.110;2023-10-09T02:51:28;101090.84;;;14.85;90.52
34961;BME280;30789;52.030;7.110;2023-10-09T02:54:06;101087.31;;;14.85;90.19
34961;BME280;30789;52.030;7.110;2023-10-09T02:56:44;101104.66;;;14.99;90.09
34961;BME280;30789;52.030;7.110;2023-10-09T02:59:13;101096.72;;;14.98;89.78
34961;BME280;30789;52.030;7.110;2023-10-09T03:01:40;101099.91;;;14.96;90.07
34961;BME280;30789;52.030;7.110;2023-10-09T03:04:10;101100.72;;;14.97;90.46
34961;BME280;30789;52.030;7.110;2023-10-09T03:06:37;101097.47;;;15.09;89.93
34961;BME280;30789;52.030;7.110;2023-10-09T03:09:10;101086.44;;;15.02;90.17
34961;BME280;30789;52.030;7.110;2023-10-09T03:11:45;101077.72;;;14.96;90.66
34961;BME280;30789;52.030;7.110;2023-10-09T03:14:15;101072.94;;;15.00;90.66
34961;BME280;30789;52.030;7.110;2023-10-09T03:16:45;101075.75;;;14.97;90.59
34961;BME280;30789;52.030;7.110;2023-10-09T03:19:13;101073.00;;;14.90;91.38
34961;BME280;30789;52.030;7.110;2023-10-09T03:26:48;101054.28;;;15.08;90.90
34961;BME280;30789;52.030;7.110;2023-10-09T03:29:20;101054.22;;;15.15;90.34
34961;BME280;30789;52.030;7.110;2023-10-09T03:31:47;101054.63;;;15.13;90.08
34961;BME280;30789;52.030;7.110;2023-10-09T03:34:16;101064.56;;;15.07;91.01
34961;BME280;30789;52.030;7.110;2023-10-09T03:36:43;101066.53;;;15.14;90.31
34961;BME280;30789;52.030;7.110;2023-10-09T03:39:10;101071.28;;;15.10;90.93
34961;BME280;30789;52.030;7.110;2023-10-09T03:41:51;101060.91;;;15.21;90.84
34961;BME280;30789;52.030;7.110;2023-10-09T03:44:19;101070.84;;;15.18;90.35
34961;BME280;30789;52.030;7.110;2023-10-09T03:46:49;101070.03;;;15.25;90.52
34961;BME280;30789;52.030;7.110;2023-10-09T03:49:16;101063.28;;;15.22;90.46
34961;BME280;30789;52.030;7.110;2023-10-09T03:51:48;101060.16;;;15.17;90.30
34961;BME280;30789;52.030;7.110;2023-10-09T03:54:21;101068.09;;;15.15;90.96
34961;BME280;30789;52.030;7.110;2023-10-09T03:56:51;101067.66;;;15.20;90.68
34961;BME280;30789;52.030;7.110;2023-10-09T03:59:24;101068.47;;;15.17;90.49
34961;BME280;30789;52.030;7.110;2023-10-09T04:01:51;101053.38;;;15.25;90.21
34961;BME280;30789;52.030;7.110;2023-10-09T04:04:20;101057.66;;;15.33;90.52
34961;BME280;30789;52.030;7.110;2023-10-09T04:06:50;101077.53;;;15.28;90.15
34961;BME280;30789;52.030;7.110;2023-10-09T04:09:20;101073.50;;;15.39;89.58
34961;BME280;30789;52.030;7.110;2023-10-09T04:12:08;101067.50;;;15.48;88.89
34961;BME280;30789;52.030;7.110;2023-10-09T04:14:50;101056.47;;;15.34;89.87
34961;BME280;30789;52.030;7.110;2023-10-09T04:17:20;101051.75;;;15.27;90.63
34961;BME280;30789;52.030;7.110;2023-10-09T04:19:59;101057.25;;;15.38;90.10
34961;BME280;30789;52.030;7.110;2023-10-09T04:23:12;101050.13;;;15.30;90.17
34961;BME280;30789;52.030;7.110;2023-10-09T04:25:41;101041.00;;;15.33;90.27
34961;BME280;30789;52.030;7.110;2023-10-09T04:28:18;101043.03;;;15.25;90.28
34961;BME280;30789;52.030;7.110;2023-10-09T04:30:45;101040.25;;;15.25;90.35
34961;BME280;30789;52.030;7.110;2023-10-09T04:33:18;101039.41;;;15.35;90.17
34961;BME280;30789;52.030;7.110;2023-10-09T04:36:01;101063.69;;;15.21;90.22
34961;BME280;30789;52.030;7.110;2023-10-09T04:38:48;101071.59;;;15.22;90.39
34961;BME280;30789;52.030;7.110;2023-10-09T04:42:04;101068.88;;;15.19;91.05
34961;BME280;30789;52.030;7.110;2023-10-09T04:44:47;101077.16;;;15.22;90.85
34961;BME280;30789;52.030;7.110;2023-10-09T04:47:45;101078.72;;;15.30;90.94
34961;BME280;30789;52.030;7.110;2023-10-09T04:50:23;101089.91;;;15.16;91.30
34961;BME280;30789;52.030;7.110;2023-10-09T04:53:07;101088.34;;;15.12;91.95
34961;BME280;30789;52.030;7.110;2023-10-09T04:55:48;101086.69;;;15.21;91.77
34961;BME280;30789;52.030;7.110;2023-10-09T04:58:22;101076.81;;;15.20;92.11
34961;BME280;30789;52.030;7.110;2023-10-09T05:00:57;101078.81;;;15.13;92.24
34961;BME280;30789;52.030;7.110;2023-10-09T05:03:38;101072.91;;;15.04;92.85
34961;BME280;30789;52.030;7.110;2023-10-09T05:06:11;101079.16;;;15.22;92.52
34961;BME280;30789;52.030;7.110;2023-10-09T05:09:09;101081.97;;;15.11;92.19
34961;BME280;30789;52.030;7.110;2023-10-09T05:11:38;101087.94;;;15.10;93.33
34961;BME280;30789;52.030;7.110;2023-10-09T05:14:36;101089.97;;;15.06;93.05
34961;BME280;30789;52.030;7.110;2023-10-09T05:17:13;101095.03;;;15.18;92.61
34961;BME280;30789;52.030;7.110;2023-10-09T05:19:42;101097.13;;;15.03;92.86
34961;BME280;30789;52.030;7.110;2023-10-09T05:22:20;101103.44;;;15.04;93.15
34961;BME280;30789;52.030;7.110;2023-10-09T05:24:56;101096.28;;;15.10;93.27
34961;BME280;30789;52.030;7.110;2023-10-09T05:27:23;101097.88;;;15.04;93.61
34961;BME280;30789;52.030;7.110;2023-10-09T05:30:12;101101.41;;;15.11;93.79
34961;BME280;30789;52.030;7.110;2023-10-09T05:32:53;101094.69;;;15.12;93.41
34961;BME280;30789;52.030;7.110;2023-10-09T05:35:46;101097.53;;;15.02;93.85
34961;BME280;30789;52.030;7.110;2023-10-09T05:38:30;101093.06;;;15.15;93.21
34961;BME280;30789;52.030;7.110;2023-10-09T05:41:00;101106.66;;;14.99;94.70
34961;BME280;30789;52.030;7.110;2023-10-09T05:43:46;101110.22;;;14.99;94.96
34961;BME280;30789;52.030;7.110;2023-10-09T05:46:31;101105.03;;;15.05;94.51
34961;BME280;30789;52.030;7.110;2023-10-09T05:49:02;101123.69;;;15.04;94.42
34961;BME280;30789;52.030;7.110;2023-10-09T05:51:44;101125.25;;;15.05;94.42
34961;BME280;30789;52.030;7.110;2023-10-09T05:54:19;101125.66;;;15.04;94.53
34961;BME280;30789;52.030;7.110;2023-10-09T05:57:05;101131.25;;;15.00;94.95
34961;BME280;30789;52.030;7.110;2023-10-09T05:59:49;101118.53;;;15.03;94.78
34961;BME280;30789;52.030;7.110;2023-10-09T06:02:34;101121.72;;;15.01;94.60
34961;BME280;30789;52.030;7.110;2023-10-09T06:05:19;101122.13;;;15.00;95.28
34961;BME280;30789;52.030;7.110;2023-10-09T06:08:00;101138.00;;;14.96;95.36
34961;BME280;30789;52.030;7.110;2023-10-09T06:10:38;101138.00;;;14.96;96.23
34961;BME280;30789;52.030;7.110;2023-10-09T06:13:07;101145.13;;;15.00;95.73
34961;BME280;30789;52.030;7.110;2023-10-09T06:15:54;101138.72;;;15.07;95.10
34961;BME280;30789;52.030;7.110;2023-10-09T06:18:46;101134.03;;;14.97;96.01
34961;BME280;30789;52.030;7.110;2023-10-09T06:21:33;101130.44;;;15.03;95.61
34961;BME280;30789;52.030;7.110;2023-10-09T06:24:06;101145.13;;;14.97;96.06
34961;BME280;30789;52.030;7.110;2023-10-09T06:26:41;101142.75;;;14.99;96.56
34961;BME280;30789;52.030;7.110;2023-10-09T06:29:16;101138.38;;;14.98;96.63
34961;BME280;30789;52.030;7.110;2023-10-09T06:31:59;101134.38;;;15.02;96.38
34961;BME280;30789;52.030;7.110;2023-10-09T06:34:44;101126.84;;;15.06;96.35
34961;BME280;30789;52.030;7.110;2023-10-09T06:37:13;101141.13;;;15.01;96.46
34961;BME280;30789;52.030;7.110;2023-10-09T06:40:00;101137.16;;;15.06;96.22
34961;BME280;30789;52.030;7.110;2023-10-09T06:42:44;101141.16;;;14.98;96.95
34961;BME280;30789;52.030;7.110;2023-10-09T06:45:16;101145.47;;;15.02;97.13
34961;BME280;30789;52.030;7.110;2023-10-09T06:47:46;101142.72;;;15.02;97.25
34961;BME280;30789;52.030;7.110;2023-10-09T06:50:23;101146.66;;;15.08;96.78
34961;BME280;30789;52.030;7.110;2023-10-09T06:53:12;101144.25;;;15.14;95.95
34961;BME280;30789;52.030;7.110;2023-10-09T06:55:53;101158.91;;;15.18;96.89
34961;BME280;30789;52.030;7.110;2023-10-09T06:58:30;101179.53;;;15.20;96.25
34961;BME280;30789;52.030;7.110;2023-10-09T07:01:07;101183.13;;;15.17;96.18
34961;BME280;30789;52.030;7.110;2023-10-09T07:03:50;101165.66;;;15.13;96.58
34961;BME280;30789;52.030;7.110;2023-10-09T07:06:21;101151.38;;;15.15;97.13
34961;BME280;30789;52.030;7.110;2023-10-09T07:08:55;101155.34;;;15.17;96.89
34961;BME280;30789;52.030;7.110;2023-10-09T07:11:42;101136.28;;;15.19;97.31
34961;BME280;30789;52.030;7.110;2023-10-09T07:14:29;101123.59;;;15.18;97.73
34961;BME280;30789;52.030;7.110;2023-10-09T07:17:13;101133.44;;;15.30;96.74
34961;BME280;30789;52.030;7.110;2023-10-09T07:19:47;101131.06;;;15.35;96.35
34961;BME280;30789;52.030;7.110;2023-10-09T07:22:35;101134.22;;;15.37;95.90
34961;BME280;30789;52.030;7.110;2023-10-09T07:25:18;101142.16;;;15.32;96.51
34961;BME280;30789;52.030;7.110;2023-10-09T07:28:06;101146.53;;;15.40;96.74
34961;BME280;30789;52.030;7.110;2023-10-09T07:30:43;101132.59;;;15.47;96.32
34961;BME280;30789;52.030;7.110;2023-10-09T07:33:11;101135.75;;;15.49;96.26
34961;BME280;30789;52.030;7.110;2023-10-09T07:35:43;101139.69;;;15.52;95.58
34961;BME280;30789;52.030;7.110;2023-10-09T07:38:17;101129.78;;;15.51;95.67
34961;BME280;30789;52.030;7.110;2023-10-09T07:40:45;101146.06;;;15.49;95.91
34961;BME280;30789;52.030;7.110;2023-10-09T07:43:21;101132.91;;;15.56;95.55
34961;BME280;30789;52.030;7.110;2023-10-09T07:45:51;101140.44;;;15.59;95.40
34961;BME280;30789;52.030;7.110;2023-10-09T07:48:49;101132.91;;;15.60;95.46
34961;BME280;30789;52.030;7.110;2023-10-09T07:51:17;101135.69;;;15.60;95.27
34961;BME280;30789;52.030;7.110;2023-10-09T07:53:49;101145.22;;;15.59;95.70
34961;BME280;30789;52.030;7.110;2023-10-09T07:56:22;101156.69;;;15.64;95.50
34961;BME280;30789;52.030;7.110;2023-10-09T07:58:49;101150.72;;;15.62;94.66
34961;BME280;30789;52.030;7.110;2023-10-09T08:01:17;101160.63;;;15.67;95.21
34961;BME280;30789;52.030;7.110;2023-10-09T08:03:49;101152.59;;;15.79;94.07
34961;BME280;30789;52.030;7.110;2023-10-09T08:06:27;101160.69;;;15.60;95.21
34961;BME280;30789;52.030;7.110;2023-10-09T08:09:08;101162.63;;;15.66;95.12
34961;BME280;30789;52.030;7.110;2023-10-09T08:12:04;101170.97;;;15.63;95.72
34961;BME280;30789;52.030;7.110;2023-10-09T08:14:56;101177.34;;;15.63;95.40
34961;BME280;30789;52.030;7.110;2023-10-09T08:17:25;101188.03;;;15.65;95.67
34961;BME280;30789;52.030;7.110;2023-10-09T08:19:55;101192.41;;;15.66;95.87
34961;BME280;30789;52.030;7.110;2023-10-09T08:22:27;101191.16;;;15.77;95.27
34961;BME280;30789;52.030;7.110;2023-10-09T08:25:17;101181.19;;;15.76;94.82
34961;BME280;30789;52.030;7.110;2023-10-09T08:27:53;101187.56;;;15.77;94.95
34961;BME280;30789;52.030;7.110;2023-10-09T08:30:23;101190.41;;;15.70;95.76
34961;BME280;30789;52.030;7.110;2023-10-09T08:33:06;101179.56;;;15.82;94.76
34961;BME280;30789;52.030;7.110;2023-10-09T08:35:48;101164.59;;;15.66;96.32
34961;BME280;30789;52.030;7.110;2023-10-09T08:38:17;101128.06;;;15.67;96.41
34961;BME280;30789;52.030;7.110;2023-10-09T08:40:48;101102.66;;;15.72;96.36
34961;BME280;30789;52.030;7.110;2023-10-09T08:43:17;101099.13;;;15.68;96.87
34961;BME280;30789;52.030;7.110;2023-10-09T08:45:46;101108.94;;;15.76;96.32
34961;BME280;30789;52.030;7.110;2023-10-09T08:48:14;101126.34;;;15.87;95.59
34961;BME280;30789;52.030;7.110;2023-10-09T08:50:41;101111.28;;;15.85;95.64
34961;BME280;30789;52.030;7.110;2023-10-09T08:53:11;101119.97;;;15.87;95.88
34961;BME280;30789;52.030;7.110;2023-10-09T08:55:39;101086.22;;;15.88;95.69
34961;BME280;30789;52.030;7.110;2023-10-09T08:58:06;101088.59;;;15.90;95.90
34961;BME280;30789;52.030;7.110;2023-10-09T09:00:39;101084.97;;;15.93;96.11
34961;BME280;30789;52.030;7.110;2023-10-09T09:03:08;101091.31;;;15.97;95.62
34961;BME280;30789;52.030;7.110;2023-10-09T09:05:35;101104.84;;;15.91;95.91
34961;BME280;30789;52.030;7.110;2023-10-09T09:08:02;101109.16;;;15.99;95.64
34961;BME280;30789;52.030;7.110;2023-10-09T09:10:31;101105.94;;;16.04;94.96
34961;BME280;30789;52.030;7.110;2023-10-09T09:13:02;101104.00;;;15.98;95.16
34961;BME280;30789;52.030;7.110;2023-10-09T09:15:29;101119.44;;;16.06;95.18
34961;BME280;30789;52.030;7.110;2023-10-09T09:18:04;101125.31;;;16.11;94.42
34961;BME280;30789;52.030;7.110;2023-10-09T09:20:32;101128.47;;;16.17;93.65
34961;BME280;30789;52.030;7.110;2023-10-09T09:23:02;101135.13;;;16.26;93.77
34961;BME280;30789;52.030;7.110;2023-10-09T09:25:41;101139.06;;;16.29;93.96
34961;BME280;30789;52.030;7.110;2023-10-09T09:28:11;101142.47;;;16.50;93.02
34961;BME280;30789;52.030;7.110;2023-10-09T09:30:39;101152.38;;;16.51;92.30
34961;BME280;30789;52.030;7.110;2023-10-09T09:33:17;101158.84;;;16.38;92.42
34961;BME280;30789;52.030;7.110;2023-10-09T09:35:56;101178.00;;;16.32;93.15
34961;BME280;30789;52.030;7.110;2023-10-09T09:38:25;101159.25;;;16.36;93.19
34961;BME280;30789;52.030;7.110;2023-10-09T09:40:56;101169.56;;;16.39;92.98
34961;BME280;30789;52.030;7.110;2023-10-09T09:43:29;101159.69;;;16.35;92.70
34961;BME280;30789;52.030;7.110;2023-10-09T09:45:56;101157.63;;;16.39;92.69
34961;BME280;30789;52.030;7.110;2023-10-09T09:48:24;101167.22;;;16.34;92.84
34961;BME280;30789;52.030;7.110;2023-10-09T09:50:52;101165.16;;;16.45;92.53
34961;BME280;30789;52.030;7.110;2023-10-09T09:53:19;101157.91;;;16.55;92.63
34961;BME280;30789;52.030;7.110;2023-10-09T09:55:50;101166.59;;;16.60;91.61
34961;BME280;30789;52.030;7.110;2023-10-09T09:58:25;101184.81;;;16.68;90.45
34961;BME280;30789;52.030;7.110;2023-10-09T10:01:01;101188.78;;;16.67;91.36
34961;BME280;30789;52.030;7.110;2023-10-09T10:03:41;101186.47;;;16.62;91.59
34961;BME280;30789;52.030;7.110;2023-10-09T10:06:09;101184.78;;;16.72;91.14
34961;BME280;30789;52.030;7.110;2023-10-09T10:08:37;101184.41;;;16.66;91.12
34961;BME280;30789;52.030;7.110;2023-10-09T10:11:04;101182.81;;;16.69;91.21
34961;BME280;30789;52.030;7.110;2023-10-09T10:13:56;101187.16;;;16.70;90.81
34961;BME280;30789;52.030;7.110;2023-10-09T10:16:25;101186.28;;;16.80;90.61
34961;BME280;30789;52.030;7.110;2023-10-09T10:19:00;101196.22;;;16.77;90.99
34961;BME280;30789;52.030;7.110;2023-10-09T10:21:33;101196.19;;;16.81;90.91
34961;BME280;30789;52.030;7.110;2023-10-09T10:24:04;101189.81;;;16.84;90.42
34961;BME280;30789;52.030;7.110;2023-10-09T10:26:32;101183.84;;;16.82;90.84
34961;BME280;30789;52.030;7.110;2023-10-09T10:29:26;101172.97;;;16.94;90.90
34961;BME280;30789;52.030;7.110;2023-10-09T10:32:00;101190.34;;;17.05;90.62
34961;BME280;30789;52.030;7.110;2023-10-09T10:34:53;101195.91;;;17.05;89.86
34961;BME280;30789;52.030;7.110;2023-10-09T10:37:34;101204.56;;;17.15;89.58
34961;BME280;30789;52.030;7.110;2023-10-09T10:40:04;101200.47;;;17.23;89.01
34961;BME280;30789;52.030;7.110;2023-10-09T10:42:46;101194.06;;;17.26;89.26
34961;BME280;30789;52.030;7.110;2023-10-09T10:45:24;101200.84;;;17.25;89.13
34961;BME280;30789;52.030;7.110;2023-10-09T10:48:01;101199.09;;;17.38;88.86
34961;BME280;30789;52.030;7.110;2023-10-09T10:50:33;101207.88;;;17.36;89.13
34961;BME280;30789;52.030;7.110;2023-10-09T10:53:09;101198.63;;;17.43;88.84
34961;BME280;30789;52.030;7.110;2023-10-09T10:55:39;101193.81;;;17.43;88.60
34961;BME280;30789;52.030;7.110;2023-10-09T10:58:24;101190.69;;;17.41;88.75
34961;BME280;30789;52.030;7.110;2023-10-09T11:01:02;101190.31;;;17.39;88.88
34961;BME280;30789;52.030;7.110;2023-10-09T11:03:40;101189.91;;;17.41;88.90
34961;BME280;30789;52.030;7.110;2023-10-09T11:06:25;101196.97;;;17.49;88.45
34961;BME280;30789;52.030;7.110;2023-10-09T11:09:01;101200.25;;;17.40;89.48
34961;BME280;30789;52.030;7.110;2023-10-09T11:11:34;101192.69;;;17.41;89.20
34961;BME280;30789;52.030;7.110;2023-10-09T11:14:09;101189.34;;;17.53;88.77
34961;BME280;30789;52.030;7.110;2023-10-09T11:16:41;101191.53;;;17.68;87.73
34961;BME280;30789;52.030;7.110;2023-10-09T11:19:18;101194.78;;;17.63;88.45
34961;BME280;30789;52.030;7.110;2023-10-09T11:21:59;101184.56;;;17.80;88.01
34961;BME280;30789;52.030;7.110;2023-10-09T11:24:46;101182.66;;;18.00;86.49
34961;BME280;30789;52.030;7.110;2023-10-09T11:27:26;101181.31;;;17.85;87.06
34961;BME280;30789;52.030;7.110;2023-10-09T11:29:57;101182.56;;;17.80;87.42
34961;BME280;30789;52.030;7.110;2023-10-09T11:32:35;101176.56;;;17.82;87.34
34961;BME280;30789;52.030;7.110;2023-10-09T11:35:10;101179.69;;;17.87;87.35
34961;BME280;30789;52.030;7.110;2023-10-09T11:37:37;101186.88;;;17.85;87.63
34961;BME280;30789;52.030;7.110;2023-10-09T11:40:05;101195.88;;;17.96;87.27
34961;BME280;30789;52.030;7.110;2023-10-09T11:42:48;101194.44;;;18.11;86.40
34961;BME280;30789;52.030;7.110;2023-10-09T11:45:24;101201.75;;;18.01;86.94
34961;BME280;30789;52.030;7.110;2023-10-09T11:47:56;101193.53;;;18.17;86.25
34961;BME280;30789;52.030;7.110;2023-10-09T11:50:39;101199.16;;;18.14;86.57
34961;BME280;30789;52.030;7.110;2023-10-09T11:53:10;101189.34;;;18.29;86.06
34961;BME280;30789;52.030;7.110;2023-10-09T11:55:44;101189.84;;;18.24;86.02
34961;BME280;30789;52.030;7.110;2023-10-09T11:58:14;101193.59;;;18.37;85.60
34961;BME280;30789;52.030;7.110;2023-10-09T12:00:48;101190.00;;;18.40;86.02
34961;BME280;30789;52.030;7.110;2023-10-09T12:03:17;101188.38;;;18.42;85.79
34961;BME280;30789;52.030;7.110;2023-10-09T12:05:48;101200.03;;;18.34;85.94
34961;BME280;30789;52.030;7.110;2023-10-09T12:08:15;101204.38;;;18.35;86.09
34961;BME280;30789;52.030;7.110;2023-10-09T12:10:42;101204.75;;;18.37;86.53
34961;BME280;30789;52.030;7.110;2023-10-09T12:13:09;101199.78;;;18.25;87.40
34961;BME280;30789;52.030;7.110;2023-10-09T12:15:35;101215.31;;;18.26;86.63
34961;BME280;30789;52.030;7.110;2023-10-09T12:18:06;101213.38;;;18.23;86.59
34961;BME280;30789;52.030;7.110;2023-10-09T12:20:41;101208.38;;;18.37;86.02
34961;BME280;30789;52.030;7.110;2023-10-09T12:23:13;101201.16;;;18.36;85.93
34961;BME280;30789;52.030;7.110;2023-10-09T12:25:40;101191.78;;;18.73;84.53
34961;BME280;30789;52.030;7.110;2023-10-09T12:28:10;101186.28;;;18.89;84.37
34961;BME280;30789;52.030;7.110;2023-10-09T12:30:37;101170.44;;;19.22;82.89
34961;BME280;30789;52.030;7.110;2023-10-09T12:33:05;101184.84;;;19.40;81.31
34961;BME280;30789;52.030;7.110;2023-10-09T12:35:36;101180.19;;;19.69;80.43
34961;BME280;30789;52.030;7.110;2023-10-09T12:38:04;101179.19;;;20.11;79.57
34961;BME280;30789;52.030;7.110;2023-10-09T12:40:34;101195.91;;;20.30;77.70
34961;BME280;30789;52.030;7.110;2023-10-09T12:43:01;101187.50;;;19.98;78.61
34961;BME280;30789;52.030;7.110;2023-10-09T12:45:28;101186.41;;;19.76;79.84
34961;BME280;30789;52.030;7.110;2023-10-09T12:47:58;101178.97;;;19.70;79.88
34961;BME280;30789;52.030;7.110;2023-10-09T12:50:25;101177.41;;;19.33;80.43
34961;BME280;30789;52.030;7.110;2023-10-09T12:52:59;101169.94;;;19.27;81.21
34961;BME280;30789;52.030;7.110;2023-10-09T12:55:34;101169.22;;;19.03;82.56
34961;BME280;30789;52.030;7.110;2023-10-09T12:58:03;101175.88;;;19.09;82.30
34961;BME280;30789;52.030;7.110;2023-10-09T13:00:35;101172.19;;;18.96;83.56
34961;BME280;30789;52.030;7.110;2023-10-09T13:03:06;101171.66;;;18.82;83.80
34961;BME280;30789;52.030;7.110;2023-10-09T13:05:46;101174.19;;;18.76;84.61
34961;BME280;30789;52.030;7.110;2023-10-09T13:08:20;101172.75;;;18.88;83.64
34961;BME280;30789;52.030;7.110;2023-10-09T13:10:52;101160.22;;;18.76;84.98
34961;BME280;30789;52.030;7.110;2023-10-09T13:13:30;101166.88;;;18.82;84.34
34961;BME280;30789;52.030;7.110;2023-10-09T13:16:08;101166.56;;;18.77;84.47
34961;BME280;30789;52.030;7.110;2023-10-09T13:18:37;101166.56;;;18.57;85.56
34961;BME280;30789;52.030;7.110;2023-10-09T13:21:04;101183.94;;;18.45;86.45
34961;BME280;30789;52.030;7.110;2023-10-09T13:23:31;101181.63;;;18.40;86.72
34961;BME280;30789;52.030;7.110;2023-10-09T13:26:06;101182.66;;;18.49;86.61
34961;BME280;30789;52.030;7.110;2023-10-09T13:28:44;101175.59;;;18.41;87.06
34961;BME280;30789;52.030;7.110;2023-10-09T13:31:11;101182.06;;;18.35;87.37
34961;BME280;30789;52.030;7.110;2023-10-09T13:33:39;101176.06;;;18.36;87.26
34961;BME280;30789;52.030;7.110;2023-10-09T13:36:06;101183.28;;;18.34;87.42